createdAt,value
2018-07-31T00:01:17.493Z,30.16
2018-07-31T00:03:46.346Z,30.11
2018-07-31T00:06:19.367Z,30.09
2018-07-31T00:08:48.519Z,30.08
2018-07-31T00:11:17.068Z,30.07
2018-07-31T00:13:45.628Z,30.03
2018-07-31T00:16:16.690Z,29.96
2018-07-31T00:18:46.443Z,29.95
2018-07-31T00:21:15.028Z,29.90
2018-07-31T00:23:47.715Z,29.89
2018-07-31T00:26:16.313Z,29.89
2018-07-31T00:28:44.952Z,29.91
2018-07-31T00:31:14.097Z,29.91
2018-07-31T00:33:42.639Z,29.93
2018-07-31T00:36:17.661Z,29.92
2018-07-31T00:38:47.591Z,29.87
2018-07-31T00:41:16.155Z,29.84
2018-07-31T00:43:44.792Z,29.78
2018-07-31T00:46:14.674Z,29.74
2018-07-31T00:48:43.194Z,29.67
2018-07-31T00:51:12.011Z,29.63
2018-07-31T00:53:53.609Z,29.62
2018-07-31T00:56:23.891Z,29.59
2018-07-31T00:58:52.493Z,29.54
2018-07-31T01:01:26.420Z,29.38
2018-07-31T01:03:55.431Z,29.26
2018-07-31T01:06:31.604Z,29.29
2018-07-31T01:11:40.469Z,29.16
2018-07-31T01:14:09.926Z,28.72
2018-07-31T01:16:40.048Z,28.58
2018-07-31T01:19:09.428Z,28.65
2018-07-31T01:21:38.082Z,28.76
2018-07-31T01:24:07.085Z,28.80
2018-07-31T01:26:46.711Z,28.67
2018-07-31T01:29:15.317Z,28.54
2018-07-31T01:31:47.865Z,28.56
2018-07-31T01:34:16.455Z,28.61
2018-07-31T01:36:45.099Z,28.66
2018-07-31T01:39:13.925Z,28.67
2018-07-31T01:41:53.698Z,28.66
2018-07-31T01:44:22.206Z,28.65
2018-07-31T01:46:52.787Z,28.64
2018-07-31T01:49:21.380Z,28.63
2018-07-31T01:51:53.828Z,28.65
2018-07-31T01:54:22.397Z,28.69
2018-07-31T01:56:50.987Z,28.65
2018-07-31T01:59:19.641Z,28.61
2018-07-31T02:01:49.559Z,28.58
2018-07-31T02:04:18.648Z,28.52
2018-07-31T02:06:49.166Z,28.41
2018-07-31T02:09:17.735Z,28.33
2018-07-31T02:11:46.628Z,28.28
2018-07-31T02:14:15.522Z,28.24
2018-07-31T02:16:44.233Z,28.23
2018-07-31T02:19:13.098Z,28.20
2018-07-31T02:21:41.687Z,28.16
2018-07-31T02:24:10.294Z,28.13
2018-07-31T02:29:12.147Z,28.04
2018-07-31T02:31:44.791Z,27.99
2018-07-31T02:34:13.619Z,27.95
2018-07-31T02:36:42.231Z,27.93
2018-07-31T02:39:10.815Z,27.90
2018-07-31T02:41:39.767Z,27.90
2018-07-31T02:44:08.674Z,27.85
2018-07-31T02:46:37.291Z,27.78
2018-07-31T02:49:07.950Z,27.78
2018-07-31T02:51:36.458Z,27.76
2018-07-31T02:54:08.419Z,27.74
2018-07-31T02:56:37.253Z,27.69
2018-07-31T02:59:05.911Z,27.64
2018-07-31T03:01:34.545Z,27.60
2018-07-31T03:04:04.056Z,27.58
2018-07-31T03:06:32.675Z,27.57
2018-07-31T03:09:01.313Z,27.52
2018-07-31T03:11:35.956Z,27.49
2018-07-31T03:14:05.387Z,27.47
2018-07-31T03:16:37.500Z,27.40
2018-07-31T03:19:06.441Z,27.37
2018-07-31T03:21:40.762Z,27.35
2018-07-31T03:24:09.403Z,27.37
2018-07-31T03:26:42.138Z,27.35
2018-07-31T03:29:11.772Z,27.39
2018-07-31T03:31:46.367Z,27.43
2018-07-31T03:34:21.541Z,27.47
2018-07-31T03:36:50.612Z,27.50
2018-07-31T03:39:23.811Z,27.52
2018-07-31T03:41:52.772Z,27.54
2018-07-31T03:44:21.421Z,27.55
2018-07-31T03:46:50.043Z,27.54
2018-07-31T03:49:18.679Z,27.52
2018-07-31T03:51:47.449Z,27.46
2018-07-31T03:54:16.171Z,27.35
2018-07-31T03:56:45.115Z,27.28
2018-07-31T03:59:13.701Z,27.21
2018-07-31T04:01:42.264Z,27.16
2018-07-31T04:04:11.292Z,27.11
2018-07-31T04:06:40.004Z,27.10
2018-07-31T04:09:10.691Z,27.07
2018-07-31T04:11:39.576Z,27.08
2018-07-31T04:14:08.179Z,27.13
2018-07-31T04:16:36.768Z,27.15
2018-07-31T04:19:05.908Z,27.16
2018-07-31T04:21:34.490Z,27.11
2018-07-31T04:24:04.652Z,27.07
2018-07-31T04:26:33.464Z,27.06
2018-07-31T04:29:07.051Z,27.06
2018-07-31T04:31:35.659Z,27.11
2018-07-31T04:34:07.631Z,27.14
2018-07-31T04:36:36.264Z,27.12
2018-07-31T04:39:07.946Z,27.15
2018-07-31T04:41:36.852Z,27.21
2018-07-31T04:44:05.647Z,27.23
2018-07-31T04:46:34.227Z,27.31
2018-07-31T04:49:03.253Z,27.38
2018-07-31T04:51:31.929Z,27.37
2018-07-31T04:54:00.954Z,27.38
2018-07-31T04:56:29.894Z,27.37
2018-07-31T04:59:05.771Z,27.40
2018-07-31T05:01:34.333Z,27.47
2018-07-31T05:04:04.131Z,27.53
2018-07-31T05:06:32.742Z,27.53
2018-07-31T05:09:01.396Z,27.56
2018-07-31T05:11:30.337Z,27.66
2018-07-31T05:13:59.048Z,27.69
2018-07-31T05:16:27.647Z,27.72
2018-07-31T05:18:56.636Z,27.74
2018-07-31T05:21:25.463Z,27.77
2018-07-31T05:23:54.127Z,27.76
2018-07-31T05:26:23.442Z,27.77
2018-07-31T05:28:52.328Z,27.84
2018-07-31T05:31:26.498Z,27.87
2018-07-31T05:33:55.781Z,27.90
2018-07-31T05:36:24.574Z,27.92
2018-07-31T05:38:53.609Z,27.98
2018-07-31T05:41:27.493Z,28.02
2018-07-31T05:43:56.311Z,28.04
2018-07-31T05:46:25.373Z,28.10
2018-07-31T05:48:55.242Z,28.11
2018-07-31T05:51:24.169Z,28.05
2018-07-31T05:53:53.209Z,28.05
2018-07-31T05:56:23.270Z,28.01
2018-07-31T05:58:52.149Z,27.94
2018-07-31T06:01:21.041Z,27.87
2018-07-31T06:03:53.495Z,27.89
2018-07-31T06:06:22.400Z,27.85
2018-07-31T06:09:02.090Z,27.84
2018-07-31T06:11:33.822Z,27.87
2018-07-31T06:14:04.524Z,27.96
2018-07-31T06:16:39.632Z,28.00
2018-07-31T06:19:10.339Z,28.09
2018-07-31T06:21:39.988Z,28.09
2018-07-31T06:24:10.413Z,28.03
2018-07-31T06:26:42.623Z,27.97
2018-07-31T06:29:17.840Z,27.99
2018-07-31T06:31:46.787Z,27.96
2018-07-31T06:34:15.607Z,27.99
2018-07-31T06:36:44.422Z,28.02
2018-07-31T06:39:13.878Z,28.03
2018-07-31T06:41:57.230Z,28.04
2018-07-31T06:44:26.710Z,28.14
2018-07-31T06:46:55.500Z,28.14
2018-07-31T06:49:29.003Z,28.25
2018-07-31T06:52:04.082Z,28.33
2018-07-31T06:54:40.090Z,28.36
2018-07-31T06:57:12.247Z,28.36
2018-07-31T06:59:42.467Z,28.28
2018-07-31T07:02:11.390Z,28.33
2018-07-31T07:04:53.854Z,28.34
2018-07-31T07:07:22.715Z,28.42
2018-07-31T07:09:52.591Z,28.56
2018-07-31T07:12:21.390Z,28.66
2018-07-31T07:14:54.474Z,28.76
2018-07-31T07:17:23.845Z,28.75
2018-07-31T07:19:52.871Z,28.95
2018-07-31T07:24:56.191Z,29.13
2018-07-31T07:27:27.974Z,29.23
2018-07-31T07:29:57.009Z,29.30
2018-07-31T07:32:28.573Z,29.37
2018-07-31T07:35:03.025Z,29.46
2018-07-31T07:37:31.779Z,29.52
2018-07-31T07:40:03.152Z,29.60
2018-07-31T07:42:32.213Z,29.55
2018-07-31T07:45:01.345Z,29.58
2018-07-31T07:47:30.016Z,29.55
2018-07-31T07:49:58.823Z,29.58
2018-07-31T07:52:29.456Z,29.62
2018-07-31T07:55:01.211Z,29.63
2018-07-31T07:57:30.372Z,29.63
2018-07-31T07:59:59.460Z,29.64
2018-07-31T08:02:28.258Z,29.70
2018-07-31T08:05:00.622Z,29.75
2018-07-31T08:07:30.030Z,29.85
2018-07-31T08:09:58.855Z,29.91
2018-07-31T08:12:27.671Z,29.93
2018-07-31T08:14:57.811Z,29.98
2018-07-31T08:17:26.749Z,30.07
2018-07-31T08:19:57.704Z,30.17
2018-07-31T08:22:26.889Z,30.21
2018-07-31T08:24:55.898Z,30.22
2018-07-31T08:27:24.765Z,30.23
2018-07-31T08:30:00.873Z,30.15
2018-07-31T08:32:30.064Z,30.16
2018-07-31T08:34:59.028Z,30.20
2018-07-31T08:37:27.808Z,30.28
2018-07-31T08:39:56.579Z,30.31
2018-07-31T08:42:25.799Z,30.36
2018-07-31T08:44:55.375Z,30.43
2018-07-31T08:47:30.976Z,30.49
2018-07-31T08:50:03.746Z,30.54
2018-07-31T08:52:32.610Z,30.63
2018-07-31T08:55:04.758Z,30.73
2018-07-31T08:57:34.979Z,30.76
2018-07-31T09:00:06.402Z,30.79
2018-07-31T09:02:35.993Z,30.84
2018-07-31T09:05:05.648Z,30.89
2018-07-31T09:07:34.578Z,30.93
2018-07-31T09:10:04.718Z,30.87
2018-07-31T09:12:33.959Z,30.91
2018-07-31T09:15:06.681Z,31.00
2018-07-31T09:17:35.627Z,31.08
2018-07-31T09:20:08.009Z,31.13
2018-07-31T09:22:36.853Z,31.19
2018-07-31T09:25:06.047Z,31.12
2018-07-31T09:27:40.863Z,31.17
2018-07-31T09:32:50.709Z,31.37
2018-07-31T09:35:19.743Z,31.54
2018-07-31T09:37:57.183Z,31.69
2018-07-31T09:40:26.056Z,31.83
2018-07-31T09:42:54.920Z,32.01
2018-07-31T09:45:23.863Z,32.14
2018-07-31T09:47:56.677Z,32.23
2018-07-31T09:50:25.605Z,32.40
2018-07-31T09:53:08.484Z,32.50
2018-07-31T09:55:51.372Z,32.70
2018-07-31T09:58:20.444Z,32.83
2018-07-31T10:00:59.228Z,32.94
2018-07-31T10:03:28.377Z,33.09
2018-07-31T10:05:57.547Z,33.16
2018-07-31T10:08:26.424Z,33.33
2018-07-31T10:10:55.792Z,33.52
2018-07-31T10:13:29.007Z,33.68
2018-07-31T10:15:57.948Z,33.83
2018-07-31T10:18:26.872Z,33.92
2018-07-31T10:20:56.006Z,34.08
2018-07-31T10:23:28.201Z,34.18
2018-07-31T10:25:57.430Z,34.32
2018-07-31T10:28:26.583Z,34.47
2018-07-31T10:30:57.665Z,34.70
2018-07-31T10:33:26.561Z,34.90
2018-07-31T10:35:56.513Z,35.09
2018-07-31T10:38:25.402Z,35.32
2018-07-31T10:40:57.727Z,35.54
2018-07-31T10:43:26.517Z,35.80
2018-07-31T10:45:57.032Z,36.06
2018-07-31T10:48:26.151Z,36.17
2018-07-31T10:50:55.007Z,36.46
2018-07-31T10:53:24.027Z,36.75
2018-07-31T10:55:53.134Z,36.97
2018-07-31T10:58:24.917Z,37.29
2018-07-31T11:00:53.803Z,37.28
2018-07-31T11:03:23.047Z,37.29
2018-07-31T11:05:52.107Z,37.65
2018-07-31T11:08:20.948Z,38.09
2018-07-31T11:10:50.856Z,38.45
2018-07-31T11:13:19.823Z,38.72
2018-07-31T11:18:28.743Z,38.91
2018-07-31T11:20:59.455Z,38.81
2018-07-31T11:23:28.444Z,38.91
2018-07-31T11:25:57.763Z,39.20
2018-07-31T11:28:27.820Z,39.33
2018-07-31T11:30:56.523Z,39.37
2018-07-31T11:33:26.795Z,39.72
2018-07-31T11:35:56.280Z,39.96
2018-07-31T11:38:25.125Z,40.12
2018-07-31T11:40:54.296Z,40.15
2018-07-31T11:43:25.555Z,40.30
2018-07-31T11:45:54.460Z,40.45
2018-07-31T11:48:24.215Z,40.51
2018-07-31T11:50:53.117Z,40.48
2018-07-31T11:53:25.105Z,40.51
2018-07-31T11:55:54.550Z,40.24
2018-07-31T11:58:24.145Z,40.36
2018-07-31T12:00:53.080Z,40.25
2018-07-31T12:03:22.416Z,40.46
2018-07-31T12:05:51.452Z,40.79
2018-07-31T12:08:20.280Z,41.13
2018-07-31T12:10:50.481Z,41.30
2018-07-31T12:13:19.358Z,41.49
2018-07-31T12:15:48.281Z,41.64
2018-07-31T12:18:19.718Z,41.79
2018-07-31T12:20:50.544Z,42.35
2018-07-31T12:23:19.404Z,41.91
2018-07-31T12:25:53.479Z,41.51
2018-07-31T12:28:22.399Z,41.69
2018-07-31T12:30:51.231Z,41.82
2018-07-31T12:33:26.350Z,42.16
2018-07-31T12:35:59.682Z,42.49
2018-07-31T12:38:33.480Z,43.11
2018-07-31T12:41:02.435Z,43.14
2018-07-31T12:43:31.277Z,43.28
2018-07-31T12:46:00.673Z,42.90
2018-07-31T12:48:29.481Z,43.41
2018-07-31T12:50:58.412Z,44.19
2018-07-31T12:53:27.752Z,44.58
2018-07-31T12:55:57.474Z,45.13
2018-07-31T12:58:26.443Z,45.49
2018-07-31T13:01:29.176Z,44.68
2018-07-31T13:04:01.002Z,44.45
2018-07-31T13:06:30.205Z,45.31
2018-07-31T13:08:59.011Z,46.03
2018-07-31T13:11:29.106Z,46.46
2018-07-31T13:13:58.387Z,47.21
2018-07-31T13:16:33.106Z,48.02
2018-07-31T13:19:03.397Z,47.49
2018-07-31T13:21:32.361Z,46.79
2018-07-31T13:24:03.129Z,47.70
2018-07-31T13:26:32.449Z,48.64
2018-07-31T13:29:02.260Z,48.84
2018-07-31T13:31:32.054Z,49.12
2018-07-31T13:34:02.441Z,49.84
2018-07-31T13:36:31.633Z,50.81
2018-07-31T13:39:00.500Z,51.52
2018-07-31T13:41:29.886Z,51.52
2018-07-31T13:43:58.874Z,51.79
2018-07-31T13:46:37.336Z,50.56
2018-07-31T13:49:06.388Z,50.23
2018-07-31T13:51:35.292Z,49.59
2018-07-31T13:54:15.967Z,50.85
2018-07-31T13:56:45.208Z,51.12
2018-07-31T13:59:15.020Z,52.29
2018-07-31T14:01:44.087Z,51.03
2018-07-31T14:04:14.008Z,51.12
2018-07-31T14:06:43.118Z,53.43
2018-07-31T14:09:56.900Z,54.90
2018-07-31T14:12:26.352Z,55.70
2018-07-31T14:14:55.370Z,56.71
2018-07-31T14:17:24.192Z,58.53
2018-07-31T14:19:53.296Z,59.14
2018-07-31T14:22:22.174Z,60.61
2018-07-31T14:24:50.965Z,59.93
2018-07-31T14:27:20.186Z,59.35
2018-07-31T14:29:49.615Z,59.36
2018-07-31T14:32:18.568Z,60.91
2018-07-31T14:34:47.671Z,57.98
2018-07-31T14:37:16.425Z,54.99
2018-07-31T14:39:45.140Z,52.64
2018-07-31T14:42:20.808Z,53.19
2018-07-31T14:44:49.661Z,52.65
2018-07-31T14:47:21.926Z,52.06
2018-07-31T14:49:51.131Z,50.75
2018-07-31T14:52:25.714Z,52.11
2018-07-31T14:54:54.749Z,54.59
2018-07-31T14:57:23.787Z,54.78
2018-07-31T15:00:14.283Z,54.54
2018-07-31T15:02:45.093Z,54.88
2018-07-31T15:05:17.567Z,56.53
2018-07-31T15:07:48.177Z,58.52
2018-07-31T15:10:18.143Z,56.56
2018-07-31T15:12:47.006Z,54.77
2018-07-31T15:15:17.366Z,54.71
2018-07-31T15:17:52.098Z,55.54
2018-07-31T15:20:22.108Z,57.15
2018-07-31T15:22:53.995Z,56.40
2018-07-31T15:25:29.805Z,56.87
2018-07-31T15:28:00.521Z,56.65
2018-07-31T15:30:34.463Z,56.58
2018-07-31T15:33:05.752Z,55.76
2018-07-31T15:35:39.084Z,54.46
2018-07-31T15:38:10.873Z,53.37
2018-07-31T15:40:42.047Z,53.93
2018-07-31T15:43:11.975Z,54.13
2018-07-31T15:45:58.203Z,53.39
2018-07-31T15:48:29.316Z,53.93
2018-07-31T15:51:02.966Z,54.49
2018-07-31T15:53:35.119Z,54.67
2018-07-31T15:59:05.907Z,52.79
2018-07-31T16:01:37.282Z,52.13
2018-07-31T16:04:06.700Z,50.87
2018-07-31T16:06:36.643Z,51.07
2018-07-31T16:09:11.161Z,49.59
2018-07-31T16:11:42.577Z,47.45
2018-07-31T16:14:18.545Z,46.82
2018-07-31T16:16:52.956Z,46.49
2018-07-31T16:19:21.963Z,45.78
2018-07-31T16:24:25.510Z,44.93
2018-07-31T16:26:57.945Z,44.23
2018-07-31T16:29:27.097Z,44.11
2018-07-31T16:31:55.956Z,43.87
2018-07-31T16:34:25.200Z,43.65
2018-07-31T16:36:54.240Z,43.20
2018-07-31T16:39:23.133Z,43.02
2018-07-31T16:41:53.992Z,42.46
2018-07-31T16:44:23.234Z,42.07
2018-07-31T16:46:52.205Z,42.02
2018-07-31T16:49:22.221Z,41.88
2018-07-31T16:51:51.769Z,42.04
2018-07-31T16:54:20.650Z,42.02
2018-07-31T16:56:52.993Z,42.55
2018-07-31T16:59:22.065Z,42.60
2018-07-31T17:01:51.375Z,42.26
2018-07-31T17:04:20.650Z,42.46
2018-07-31T17:06:49.998Z,42.02
2018-07-31T17:09:28.401Z,41.74
2018-07-31T17:12:19.573Z,41.27
2018-07-31T17:15:13.259Z,40.78
2018-07-31T17:17:42.564Z,41.06
2018-07-31T17:20:11.569Z,41.30
2018-07-31T17:22:40.613Z,40.95
2018-07-31T17:25:13.298Z,41.01
2018-07-31T17:28:03.434Z,40.97
2018-07-31T17:30:35.993Z,41.23
2018-07-31T17:33:05.024Z,41.18
2018-07-31T17:35:34.094Z,40.74
2018-07-31T17:38:19.801Z,39.74
2018-07-31T17:41:09.243Z,39.29
2018-07-31T17:43:38.526Z,39.16
2018-07-31T17:46:09.659Z,38.99
2018-07-31T17:48:38.498Z,38.68
2018-07-31T17:51:09.568Z,38.35
2018-07-31T17:53:38.442Z,38.22
2018-07-31T17:56:07.377Z,38.03
2018-07-31T17:58:36.631Z,37.59
2018-07-31T18:01:10.680Z,37.49
2018-07-31T18:03:39.592Z,37.22
2018-07-31T18:06:12.543Z,37.04
2018-07-31T18:08:41.539Z,36.71
2018-07-31T18:11:10.846Z,36.68
2018-07-31T18:13:43.583Z,36.59
2018-07-31T18:16:12.877Z,36.49
2018-07-31T18:18:42.892Z,36.63
2018-07-31T18:21:11.795Z,36.42
2018-07-31T18:23:40.886Z,36.28
2018-07-31T18:26:10.058Z,36.33
2018-07-31T18:28:38.940Z,36.26
2018-07-31T18:31:08.050Z,36.15
2018-07-31T18:33:37.376Z,36.16
2018-07-31T18:36:07.028Z,35.93
2018-07-31T18:38:35.949Z,35.84
2018-07-31T18:41:05.227Z,35.74
2018-07-31T18:43:33.909Z,35.78
2018-07-31T18:46:04.114Z,35.61
2018-07-31T18:48:33.295Z,35.62
2018-07-31T18:51:13.189Z,35.42
2018-07-31T18:53:42.213Z,35.45
2018-07-31T18:56:11.876Z,35.28
2018-07-31T18:58:40.735Z,35.35
2018-07-31T19:01:10.025Z,35.27
2018-07-31T19:03:38.864Z,35.13
2018-07-31T19:06:07.841Z,35.13
2018-07-31T19:08:37.060Z,35.00
2018-07-31T19:11:05.925Z,35.04
2018-07-31T19:13:35.025Z,35.04
2018-07-31T19:16:05.887Z,34.98
2018-07-31T19:18:38.771Z,34.98
2018-07-31T19:21:07.557Z,34.86
2018-07-31T19:23:36.404Z,34.87
2018-07-31T19:26:05.930Z,34.81
2018-07-31T19:28:35.133Z,34.56
2018-07-31T19:31:06.957Z,34.65
2018-07-31T19:33:35.725Z,34.55
2018-07-31T19:36:05.798Z,34.52
2018-07-31T19:38:34.694Z,34.36
2018-07-31T19:41:04.158Z,34.34
2018-07-31T19:43:33.135Z,34.16
2018-07-31T19:46:08.624Z,34.19
2018-07-31T19:48:38.750Z,34.17
2018-07-31T19:51:07.784Z,34.12
2018-07-31T19:53:37.537Z,34.08
2018-07-31T19:56:06.757Z,34.10
2018-07-31T19:58:35.693Z,34.05
2018-07-31T20:01:10.561Z,34.00
2018-07-31T20:03:40.321Z,33.93
2018-07-31T20:06:12.162Z,33.99
2018-07-31T20:08:41.033Z,34.03
2018-07-31T20:11:10.322Z,34.05
2018-07-31T20:13:39.151Z,34.08
2018-07-31T20:16:08.145Z,34.01
2018-07-31T20:18:37.269Z,34.00
2018-07-31T20:21:09.253Z,33.94
2018-07-31T20:23:38.386Z,33.89
2018-07-31T20:26:08.508Z,33.80
2018-07-31T20:28:42.810Z,33.73
2018-07-31T20:31:12.209Z,33.74
2018-07-31T20:33:41.496Z,33.68
2018-07-31T20:36:10.477Z,33.60
2018-07-31T20:38:39.317Z,33.61
2018-07-31T20:41:08.430Z,33.58
2018-07-31T20:43:38.304Z,33.59
2018-07-31T20:46:13.443Z,33.38
2018-07-31T20:48:42.829Z,33.31
2018-07-31T20:51:11.717Z,33.32
2018-07-31T20:53:40.435Z,33.30
2018-07-31T20:56:15.760Z,33.23
2018-07-31T20:58:44.642Z,33.23
2018-07-31T21:01:13.742Z,33.17
2018-07-31T21:03:45.141Z,33.09
2018-07-31T21:06:16.262Z,32.99
2018-07-31T21:08:45.096Z,33.00
2018-07-31T21:11:18.989Z,32.94
2018-07-31T21:13:52.674Z,32.91
2018-07-31T21:16:21.816Z,32.87
2018-07-31T21:18:50.795Z,32.81
2018-07-31T21:21:20.849Z,32.83
2018-07-31T21:23:49.942Z,32.67
2018-07-31T21:26:18.947Z,32.63
2018-07-31T21:28:48.624Z,32.56
2018-07-31T21:31:21.161Z,32.51
2018-07-31T21:33:50.581Z,32.50
2018-07-31T21:36:19.644Z,32.43
2018-07-31T21:38:48.908Z,32.43
2018-07-31T21:41:17.788Z,32.35
2018-07-31T21:46:22.136Z,32.25
2018-07-31T21:48:50.893Z,32.19
2018-07-31T21:51:19.649Z,32.17
2018-07-31T21:53:48.756Z,32.01
2018-07-31T21:56:18.483Z,31.95
2018-07-31T21:58:47.334Z,31.97
2018-07-31T22:03:42.801Z,32.01
2018-07-31T22:06:11.868Z,31.98
2018-07-31T22:08:41.121Z,31.92
2018-07-31T22:11:10.223Z,31.93
2018-07-31T22:13:38.970Z,31.91
2018-07-31T22:16:08.071Z,31.89
2018-07-31T22:18:36.800Z,31.78
2018-07-31T22:21:08.356Z,31.82
2018-07-31T22:23:37.537Z,31.66
2018-07-31T22:26:06.823Z,31.59
2018-07-31T22:28:36.441Z,31.40
2018-07-31T22:31:08.064Z,31.40
2018-07-31T22:33:36.815Z,31.29
2018-07-31T22:36:09.525Z,31.23
2018-07-31T22:38:38.211Z,31.31
2018-07-31T22:41:07.001Z,31.31
2018-07-31T22:43:37.616Z,31.29
2018-07-31T22:46:06.298Z,31.29
2018-07-31T22:48:35.686Z,31.27
2018-07-31T22:51:04.746Z,31.19
2018-07-31T22:53:34.058Z,31.03
2018-07-31T22:56:14.574Z,30.92
2018-07-31T22:58:43.777Z,30.88
2018-07-31T23:01:13.085Z,30.90
2018-07-31T23:03:41.754Z,30.91
2018-07-31T23:06:10.411Z,30.95
2018-07-31T23:08:39.146Z,30.94
2018-07-31T23:11:08.153Z,30.94
2018-07-31T23:13:39.056Z,30.79
2018-07-31T23:16:07.840Z,30.65
2018-07-31T23:18:36.933Z,30.63
2018-07-31T23:21:08.860Z,30.70
2018-07-31T23:23:37.694Z,30.70
2018-07-31T23:26:07.112Z,30.68
2018-07-31T23:28:41.854Z,30.79
2018-07-31T23:31:10.741Z,30.77
2018-07-31T23:33:39.398Z,30.64
2018-07-31T23:36:08.735Z,30.72
2018-07-31T23:38:37.474Z,30.72
2018-07-31T23:41:07.492Z,30.63
2018-07-31T23:43:40.084Z,30.43
2018-07-31T23:46:09.043Z,30.33
2018-07-31T23:48:38.160Z,30.35
2018-07-31T23:51:11.660Z,30.35
2018-07-31T23:53:40.654Z,30.30
2018-07-31T23:56:09.693Z,30.25
2018-07-31T23:58:38.403Z,30.29
